createdAt,value
2022-12-31T00:01:16.129Z,98775.91
2022-12-31T00:04:02.544Z,98780.16
2022-12-31T00:06:48.914Z,98794.91
2022-12-31T00:09:35.438Z,98788.97
2022-12-31T00:12:22.139Z,98785.66
2022-12-31T00:15:09.849Z,98787.38
2022-12-31T00:17:56.596Z,98788.91
2022-12-31T00:20:43.272Z,98791.47
2022-12-31T00:23:29.826Z,98794.03
2022-12-31T00:26:19.544Z,98794.75
2022-12-31T00:29:06.531Z,98808.34
2022-12-31T00:31:53.200Z,98807.31
2022-12-31T00:34:39.500Z,98819.25
2022-12-31T00:37:26.311Z,98824.31
2022-12-31T00:40:12.856Z,98825.19
2022-12-31T00:42:59.428Z,98817.28
2022-12-31T00:45:46.146Z,98816.25
2022-12-31T00:48:33.969Z,98823.94
2022-12-31T00:51:23.319Z,98823.13
2022-12-31T00:54:10.190Z,98822.19
2022-12-31T00:56:56.857Z,98835.13
2022-12-31T00:59:43.111Z,98829.13
2022-12-31T01:02:29.851Z,98844.69
2022-12-31T01:05:21.739Z,98841.34
2022-12-31T01:08:08.698Z,98848.22
2022-12-31T01:11:13.860Z,98844.69
2022-12-31T01:14:15.392Z,98864.66
2022-12-31T01:17:02.194Z,98863.63
2022-12-31T01:19:48.584Z,98866.44
2022-12-31T01:22:35.110Z,98878.56
2022-12-31T01:25:24.633Z,98881.06
2022-12-31T01:28:11.070Z,98893.28
2022-12-31T01:30:57.812Z,98898.56
2022-12-31T01:33:45.088Z,98908.91
2022-12-31T01:36:33.679Z,98894.84
2022-12-31T01:39:20.174Z,98892.22
2022-12-31T01:42:06.717Z,98888.88
2022-12-31T01:44:55.228Z,98889.06
2022-12-31T01:47:49.925Z,98892.44
2022-12-31T01:50:38.973Z,98901.06
2022-12-31T01:53:25.508Z,98907.09
2022-12-31T01:56:12.104Z,98902.97
2022-12-31T01:58:59.378Z,98898.03
2022-12-31T02:01:48.366Z,98909.19
2022-12-31T02:04:35.021Z,98915.44
2022-12-31T02:07:22.636Z,98923.06
2022-12-31T02:10:09.319Z,98916.81
2022-12-31T02:12:56.116Z,98918.69
2022-12-31T02:16:07.394Z,98905.38
2022-12-31T02:19:31.293Z,98905.28
2022-12-31T02:22:36.229Z,98912.03
2022-12-31T02:25:35.238Z,98909.81
2022-12-31T02:28:56.126Z,98920.69
2022-12-31T02:31:52.989Z,98924.69
2022-12-31T02:34:50.386Z,98924.56
2022-12-31T02:37:39.296Z,98931.41
2022-12-31T02:40:26.020Z,98927.09
2022-12-31T02:43:12.621Z,98923.06
2022-12-31T02:46:19.341Z,98917.25
2022-12-31T02:49:38.398Z,98899.53
2022-12-31T02:52:43.556Z,98917.69
2022-12-31T02:56:03.248Z,98920.97
2022-12-31T02:59:24.654Z,98913.16
2022-12-31T03:02:15.861Z,98900.16
2022-12-31T03:05:03.688Z,98896.16
2022-12-31T03:07:51.059Z,98903.03
2022-12-31T03:10:37.750Z,98905.66
2022-12-31T03:13:25.070Z,98914.06
2022-12-31T03:16:11.631Z,98909.81
2022-12-31T03:19:16.921Z,98893.28
2022-12-31T03:22:22.070Z,98894.25
2022-12-31T03:25:32.327Z,98915.31
2022-12-31T03:28:21.354Z,98911.22
2022-12-31T03:31:08.029Z,98917.34
2022-12-31T03:33:54.761Z,98929.47
2022-12-31T03:36:41.139Z,98934.72
2022-12-31T03:39:27.886Z,98924.22
2022-12-31T03:42:14.447Z,98927.69
2022-12-31T03:45:00.968Z,98943.22
2022-12-31T03:47:48.262Z,98920.75
2022-12-31T03:50:35.728Z,98928.56
2022-12-31T03:53:22.922Z,98931.25
2022-12-31T03:56:09.401Z,98920.09
2022-12-31T03:58:56.575Z,98925.13
2022-12-31T04:01:43.257Z,98922.63
2022-12-31T04:04:29.984Z,98922.81
2022-12-31T04:07:16.433Z,98928.81
2022-12-31T04:10:05.030Z,98926.06
2022-12-31T04:12:51.602Z,98935.66
2022-12-31T04:15:37.951Z,98941.66
2022-12-31T04:18:24.485Z,98931.09
2022-12-31T04:21:14.040Z,98932.94
2022-12-31T04:24:01.799Z,98937.03
2022-12-31T04:26:48.050Z,98936.19
2022-12-31T04:29:35.255Z,98937.16
2022-12-31T04:32:21.842Z,98938.78
2022-12-31T04:35:09.857Z,98943.00
2022-12-31T04:37:56.762Z,98946.56
2022-12-31T04:41:04.022Z,98935.38
2022-12-31T04:43:56.060Z,98942.16
2022-12-31T04:46:43.133Z,98943.94
2022-12-31T04:49:29.523Z,98945.69
2022-12-31T04:52:16.230Z,98962.00
2022-12-31T04:55:02.784Z,98960.41
2022-12-31T04:57:49.479Z,98963.59
2022-12-31T05:00:35.840Z,98967.91
2022-12-31T05:03:25.107Z,98976.63
2022-12-31T05:06:20.509Z,98970.38
2022-12-31T05:09:07.000Z,98974.88
2022-12-31T05:11:53.404Z,98963.50
2022-12-31T05:14:40.034Z,98972.09
2022-12-31T05:17:26.377Z,98980.00
2022-12-31T05:20:13.101Z,98979.31
2022-12-31T05:22:59.933Z,98978.13
2022-12-31T05:25:47.792Z,98978.72
2022-12-31T05:28:34.518Z,98974.50
2022-12-31T05:31:20.815Z,98977.00
2022-12-31T05:34:07.362Z,98978.63
2022-12-31T05:36:53.844Z,98978.31
2022-12-31T05:39:40.786Z,98974.69
2022-12-31T05:42:27.213Z,98967.84
2022-12-31T05:45:13.560Z,98979.72
2022-12-31T05:48:00.139Z,98988.38
2022-12-31T05:50:47.034Z,98986.44
2022-12-31T05:53:34.393Z,98989.13
2022-12-31T05:56:20.867Z,98986.53
2022-12-31T05:59:07.143Z,98998.59
2022-12-31T06:01:54.049Z,98987.28
2022-12-31T06:04:40.521Z,99002.81
2022-12-31T06:07:27.480Z,99008.94
2022-12-31T06:10:13.784Z,99008.06
2022-12-31T06:13:00.499Z,99013.16
2022-12-31T06:15:47.129Z,99012.19
2022-12-31T06:18:33.906Z,99026.06
2022-12-31T06:21:21.584Z,99022.66
2022-12-31T06:24:08.227Z,99021.91
2022-12-31T06:26:54.910Z,99028.78
2022-12-31T06:29:41.449Z,99035.78
2022-12-31T06:32:28.008Z,99039.28
2022-12-31T06:35:27.666Z,99029.66
2022-12-31T06:38:14.695Z,99029.06
2022-12-31T06:41:07.931Z,99021.44
2022-12-31T06:43:54.577Z,99032.03
2022-12-31T06:46:41.130Z,99036.44
2022-12-31T06:49:27.965Z,99028.53
2022-12-31T06:52:14.374Z,99035.91
2022-12-31T06:55:01.183Z,99027.94
2022-12-31T06:57:48.142Z,99024.53
2022-12-31T07:00:34.590Z,99023.72
2022-12-31T07:03:37.630Z,99025.41
2022-12-31T07:06:32.910Z,99037.59
2022-12-31T07:09:44.822Z,99034.91
2022-12-31T07:12:59.434Z,99035.75
2022-12-31T07:16:09.581Z,99040.91
2022-12-31T07:19:09.567Z,99041.59
2022-12-31T07:21:58.618Z,99031.00
2022-12-31T07:24:45.523Z,99045.81
2022-12-31T07:27:50.028Z,99044.81
2022-12-31T07:30:52.539Z,99054.47
2022-12-31T07:33:57.891Z,99043.84
2022-12-31T07:36:50.164Z,99047.97
2022-12-31T07:39:45.991Z,99047.91
2022-12-31T07:42:52.360Z,99047.00
2022-12-31T07:45:52.030Z,99044.41
2022-12-31T07:48:38.639Z,99043.66
2022-12-31T07:51:25.408Z,99053.28
2022-12-31T07:54:14.403Z,99068.06
2022-12-31T07:57:01.131Z,99072.75
2022-12-31T07:59:47.835Z,99071.91
2022-12-31T08:02:53.724Z,99079.50
2022-12-31T08:05:43.050Z,99079.28
2022-12-31T08:08:58.194Z,99074.75
2022-12-31T08:12:01.331Z,99088.63
2022-12-31T08:14:48.855Z,99092.69
2022-12-31T08:17:35.546Z,99091.72
2022-12-31T08:20:22.173Z,99102.00
2022-12-31T08:23:41.056Z,99105.66
2022-12-31T08:26:39.249Z,99104.66
2022-12-31T08:29:39.997Z,99104.56
2022-12-31T08:33:00.600Z,99107.38
2022-12-31T08:36:24.451Z,99106.25
2022-12-31T08:39:28.401Z,99104.50
2022-12-31T08:42:21.196Z,99119.34
2022-12-31T08:45:29.045Z,99132.22
2022-12-31T08:48:42.031Z,99134.94
2022-12-31T08:51:28.795Z,99134.00
2022-12-31T08:54:15.376Z,99141.72
2022-12-31T08:57:21.171Z,99147.81
2022-12-31T09:00:13.223Z,99139.09
2022-12-31T09:03:24.634Z,99138.25
2022-12-31T09:06:27.133Z,99138.16
2022-12-31T09:09:32.951Z,99128.50
2022-12-31T09:12:38.422Z,99135.31
2022-12-31T09:15:34.918Z,99140.47
2022-12-31T09:18:28.329Z,99135.09
2022-12-31T09:21:18.282Z,99144.34
2022-12-31T09:24:09.339Z,99139.94
2022-12-31T09:27:27.554Z,99150.31
2022-12-31T09:30:16.600Z,99150.16
2022-12-31T09:33:12.811Z,99153.59
2022-12-31T09:36:14.774Z,99161.59
2022-12-31T09:39:30.670Z,99141.94
2022-12-31T09:42:17.669Z,99162.47
2022-12-31T09:45:24.453Z,99164.03
2022-12-31T09:48:17.215Z,99161.31
2022-12-31T09:51:20.377Z,99160.22
2022-12-31T09:54:23.473Z,99156.41
2022-12-31T09:57:31.421Z,99152.56
2022-12-31T10:00:23.967Z,99150.34
2022-12-31T10:03:31.626Z,99146.63
2022-12-31T10:07:09.445Z,99150.09
2022-12-31T10:10:23.576Z,99150.19
2022-12-31T10:13:37.996Z,99141.56
2022-12-31T10:16:42.521Z,99145.09
2022-12-31T10:19:59.877Z,99145.03
2022-12-31T10:22:46.424Z,99156.00
2022-12-31T10:26:00.764Z,99145.56
2022-12-31T10:29:10.533Z,99127.00
2022-12-31T10:32:15.493Z,99134.78
2022-12-31T10:35:26.792Z,99130.97
2022-12-31T10:38:32.246Z,99124.97
2022-12-31T10:41:40.622Z,99132.69
2022-12-31T10:44:36.029Z,99123.81
2022-12-31T10:47:44.198Z,99116.81
2022-12-31T10:50:55.442Z,99118.22
2022-12-31T10:53:53.899Z,99104.00
2022-12-31T10:57:15.715Z,99111.75
2022-12-31T11:00:02.217Z,99110.78
2022-12-31T11:03:25.156Z,99120.47
2022-12-31T11:06:39.133Z,99134.16
2022-12-31T11:09:56.947Z,99128.84
2022-12-31T11:13:10.784Z,99122.16
2022-12-31T11:16:12.599Z,99131.00
2022-12-31T11:19:15.021Z,99140.28
2022-12-31T11:22:25.067Z,99140.94
2022-12-31T11:25:24.696Z,99125.09
2022-12-31T11:28:22.298Z,99112.47
2022-12-31T11:31:37.177Z,99109.06
2022-12-31T11:34:38.641Z,99105.03
2022-12-31T11:37:32.872Z,99100.03
2022-12-31T11:40:54.237Z,99106.88
2022-12-31T11:44:01.084Z,99102.09
2022-12-31T11:47:10.102Z,99103.81
2022-12-31T11:50:27.422Z,99102.03
2022-12-31T11:53:32.817Z,99094.88
2022-12-31T11:56:23.192Z,99097.56
2022-12-31T11:59:18.831Z,99091.56
2022-12-31T12:02:21.595Z,99088.84
2022-12-31T12:05:11.387Z,99090.53
2022-12-31T12:07:58.510Z,99077.50
2022-12-31T12:10:52.752Z,99079.03
2022-12-31T12:13:39.351Z,99077.16
2022-12-31T12:16:28.381Z,99078.72
2022-12-31T12:19:18.306Z,99070.75
2022-12-31T12:22:31.236Z,99061.81
2022-12-31T12:25:25.902Z,99071.19
2022-12-31T12:28:18.351Z,99071.44
2022-12-31T12:31:05.490Z,99055.84
2022-12-31T12:33:52.447Z,99054.78
2022-12-31T12:36:47.015Z,99058.06
2022-12-31T12:39:54.376Z,99055.25
2022-12-31T12:42:49.730Z,99061.59
2022-12-31T12:45:52.215Z,99056.34
2022-12-31T12:48:46.475Z,99054.72
2022-12-31T12:52:03.239Z,99032.66
2022-12-31T12:55:24.624Z,99058.34
2022-12-31T12:58:29.807Z,99062.00
2022-12-31T13:01:46.122Z,99062.09
2022-12-31T13:04:39.595Z,99058.78
2022-12-31T13:08:04.936Z,99060.38
2022-12-31T13:11:11.588Z,99062.75
2022-12-31T13:14:16.353Z,99048.13
2022-12-31T13:17:22.456Z,99041.03
2022-12-31T13:20:24.793Z,99033.31
2022-12-31T13:23:27.743Z,99035.13
2022-12-31T13:26:21.674Z,99036.28
2022-12-31T13:29:17.357Z,99036.63
2022-12-31T13:32:09.139Z,99026.94
2022-12-31T13:35:24.760Z,99021.00
2022-12-31T13:38:40.483Z,99018.63
2022-12-31T13:41:41.807Z,99021.47
2022-12-31T13:44:49.629Z,99024.97
2022-12-31T13:47:45.922Z,99009.34
2022-12-31T13:50:39.300Z,99021.81
2022-12-31T13:53:38.402Z,99031.28
2022-12-31T13:56:29.880Z,99034.75
2022-12-31T13:59:22.711Z,99023.69
2022-12-31T14:02:35.488Z,99033.53
2022-12-31T14:05:56.466Z,99031.25
2022-12-31T14:08:44.437Z,99022.09
2022-12-31T14:11:53.752Z,99019.50
2022-12-31T14:15:09.827Z,99031.25
2022-12-31T14:18:11.273Z,99032.22
2022-12-31T14:21:08.204Z,99032.50
2022-12-31T14:24:13.087Z,99030.66
2022-12-31T14:27:05.031Z,99014.34
2022-12-31T14:30:07.229Z,99023.94
2022-12-31T14:33:22.011Z,99027.44
2022-12-31T14:36:52.975Z,99028.94
2022-12-31T14:39:59.175Z,99030.25
2022-12-31T14:42:59.973Z,99036.50
2022-12-31T14:46:12.853Z,99026.41
2022-12-31T14:49:15.327Z,99024.94
2022-12-31T14:52:09.396Z,99035.19
2022-12-31T14:55:23.378Z,99037.41
2022-12-31T14:58:37.847Z,99047.94
2022-12-31T15:01:27.974Z,99041.31
2022-12-31T15:04:15.444Z,99041.53
2022-12-31T15:07:37.834Z,99044.72
2022-12-31T15:10:46.421Z,99045.63
2022-12-31T15:14:03.555Z,99034.34
2022-12-31T15:17:16.297Z,99041.25
2022-12-31T15:20:38.418Z,99044.91
2022-12-31T15:23:35.413Z,99043.53
2022-12-31T15:26:28.601Z,99045.50
2022-12-31T15:29:26.495Z,99044.03
2022-12-31T15:32:20.589Z,99050.47
2022-12-31T15:35:27.050Z,99043.38
2022-12-31T15:38:13.589Z,99054.66
2022-12-31T15:41:01.305Z,99048.53
2022-12-31T15:43:52.799Z,99052.31
2022-12-31T15:46:42.726Z,99050.25
2022-12-31T15:49:37.240Z,99053.03
2022-12-31T15:52:32.260Z,99060.53
2022-12-31T15:55:46.380Z,99066.03
2022-12-31T15:58:36.044Z,99059.22
2022-12-31T16:01:34.113Z,99060.44
2022-12-31T16:04:24.339Z,99068.44
2022-12-31T16:07:12.429Z,99058.38
2022-12-31T16:10:02.688Z,99060.16
2022-12-31T16:12:49.803Z,99063.72
2022-12-31T16:15:37.026Z,99066.22
2022-12-31T16:18:23.445Z,99071.97
2022-12-31T16:21:32.885Z,99061.38
2022-12-31T16:24:32.760Z,99079.91
2022-12-31T16:27:19.201Z,99080.69
2022-12-31T16:30:18.906Z,99080.03
2022-12-31T16:33:11.467Z,99080.16
2022-12-31T16:36:00.609Z,99079.09
2022-12-31T16:38:47.639Z,99085.84
2022-12-31T16:41:42.750Z,99085.09
2022-12-31T16:44:30.362Z,99080.94
2022-12-31T16:47:29.882Z,99082.59
2022-12-31T16:50:20.523Z,99090.44
2022-12-31T16:53:07.845Z,99084.47
2022-12-31T16:55:59.936Z,99074.75
2022-12-31T16:58:46.713Z,99084.34
2022-12-31T17:01:37.076Z,99088.56
2022-12-31T17:04:24.538Z,99090.56
2022-12-31T17:07:39.440Z,99093.41
2022-12-31T17:10:36.481Z,99095.31
2022-12-31T17:13:30.361Z,99092.81
2022-12-31T17:16:25.194Z,99091.34
2022-12-31T17:19:35.013Z,99087.13
2022-12-31T17:22:36.725Z,99096.91
2022-12-31T17:25:30.532Z,99098.84
2022-12-31T17:28:27.879Z,99102.50
2022-12-31T17:31:26.871Z,99101.78
2022-12-31T17:34:13.618Z,99104.50
2022-12-31T17:37:18.647Z,99100.31
2022-12-31T17:40:49.135Z,99115.84
2022-12-31T17:43:12.969Z,99105.63
2022-12-31T17:46:00.139Z,99115.88
2022-12-31T17:48:51.950Z,99116.88
2022-12-31T17:51:42.511Z,99115.91
2022-12-31T17:54:31.967Z,99118.59
2022-12-31T17:57:26.374Z,99119.34
2022-12-31T18:00:22.053Z,99122.06
2022-12-31T18:03:08.902Z,99124.66
2022-12-31T18:05:55.594Z,99116.06
2022-12-31T18:08:42.583Z,99108.28
2022-12-31T18:11:29.566Z,99116.88
2022-12-31T18:14:16.632Z,99116.03
2022-12-31T18:17:03.393Z,99124.72
2022-12-31T18:20:06.383Z,99129.00
2022-12-31T18:22:53.295Z,99125.56
2022-12-31T18:28:24.808Z,99127.28
2022-12-31T18:31:30.798Z,99133.34
2022-12-31T18:34:18.205Z,99136.81
2022-12-31T18:37:19.471Z,99127.38
2022-12-31T18:40:08.438Z,99142.09
2022-12-31T18:42:58.415Z,99142.13
2022-12-31T18:45:48.792Z,99132.72
2022-12-31T18:48:35.620Z,99144.75
2022-12-31T18:51:31.257Z,99150.00
2022-12-31T18:54:18.516Z,99150.03
2022-12-31T18:57:08.954Z,99154.34
2022-12-31T18:59:56.162Z,99152.66
2022-12-31T19:02:42.421Z,99149.25
2022-12-31T19:05:31.399Z,99155.28
2022-12-31T19:08:19.780Z,99151.88
2022-12-31T19:11:06.648Z,99154.44
2022-12-31T19:13:53.359Z,99156.22
2022-12-31T19:16:39.727Z,99154.44
2022-12-31T19:19:26.568Z,99157.06
2022-12-31T19:22:15.302Z,99168.28
2022-12-31T19:25:01.746Z,99157.09
2022-12-31T19:27:49.525Z,99164.00
2022-12-31T19:30:36.564Z,99164.00
2022-12-31T19:33:22.975Z,99158.81
2022-12-31T19:36:16.090Z,99164.84
2022-12-31T19:39:04.572Z,99159.66
2022-12-31T19:41:58.574Z,99161.38
2022-12-31T19:44:45.662Z,99158.78
2022-12-31T19:47:32.186Z,99168.25
2022-12-31T19:50:27.105Z,99162.06
2022-12-31T19:53:16.817Z,99163.88
2022-12-31T19:56:03.844Z,99175.13
2022-12-31T19:58:50.489Z,99176.84
2022-12-31T20:01:37.412Z,99169.16
2022-12-31T20:04:24.382Z,99174.31
2022-12-31T20:07:11.278Z,99170.78
2022-12-31T20:09:58.633Z,99168.28
2022-12-31T20:12:45.072Z,99173.44
2022-12-31T20:15:32.126Z,99179.50
2022-12-31T20:18:21.161Z,99161.38
2022-12-31T20:21:13.904Z,99169.16
2022-12-31T20:24:00.815Z,99167.41
2022-12-31T20:26:47.475Z,99160.50
2022-12-31T20:29:38.367Z,99161.38
2022-12-31T20:32:25.152Z,99164.75
2022-12-31T20:35:12.014Z,99169.91
2022-12-31T20:37:58.552Z,99169.84
2022-12-31T20:40:47.111Z,99173.13
2022-12-31T20:43:34.642Z,99178.31
2022-12-31T20:46:24.812Z,99174.84
2022-12-31T20:49:11.649Z,99174.94
2022-12-31T20:51:58.290Z,99176.66
2022-12-31T20:54:44.653Z,99178.50
2022-12-31T20:57:36.073Z,99176.75
2022-12-31T21:00:23.093Z,99168.16
2022-12-31T21:03:30.032Z,99176.81
2022-12-31T21:06:16.507Z,99177.72
2022-12-31T21:09:05.193Z,99192.44
2022-12-31T21:12:10.146Z,99191.53
2022-12-31T21:14:57.316Z,99183.81
2022-12-31T21:17:44.154Z,99189.03
2022-12-31T21:20:30.803Z,99185.59
2022-12-31T21:23:18.818Z,99195.94
2022-12-31T21:26:06.380Z,99151.13
2022-12-31T21:28:53.864Z,99185.59
2022-12-31T21:31:40.133Z,99195.97
2022-12-31T21:34:26.553Z,99198.53
2022-12-31T21:37:13.235Z,99203.72
2022-12-31T21:39:59.787Z,99199.41
2022-12-31T21:42:46.595Z,99189.06
2022-12-31T21:45:34.331Z,99194.22
2022-12-31T21:48:21.346Z,99195.09
2022-12-31T21:51:11.378Z,99201.16
2022-12-31T21:53:59.045Z,99206.31
2022-12-31T21:56:45.888Z,99204.59
2022-12-31T22:00:16.138Z,99219.28
2022-12-31T22:03:17.959Z,99219.25
2022-12-31T22:06:12.222Z,99230.47
2022-12-31T22:08:58.653Z,99218.38
2022-12-31T22:11:45.246Z,99222.72
2022-12-31T22:14:31.605Z,99218.41
2022-12-31T22:17:18.240Z,99210.59
2022-12-31T22:23:12.058Z,99225.19
2022-12-31T22:25:58.588Z,99226.91
2022-12-31T22:28:46.434Z,99226.91
2022-12-31T22:31:33.160Z,99232.91
2022-12-31T22:34:19.857Z,99233.78
2022-12-31T22:37:27.593Z,99235.50
2022-12-31T22:40:12.840Z,99236.31
2022-12-31T22:42:59.816Z,99238.03
2022-12-31T22:45:46.358Z,99235.47
2022-12-31T22:48:33.249Z,99242.34
2022-12-31T22:51:20.877Z,99248.34
2022-12-31T22:54:07.650Z,99256.09
2022-12-31T22:56:54.123Z,99240.56
2022-12-31T22:59:40.844Z,99257.78
2022-12-31T23:02:27.510Z,99258.63
2022-12-31T23:05:15.587Z,99260.34
2022-12-31T23:08:18.729Z,99265.50
2022-12-31T23:11:10.041Z,99257.72
2022-12-31T23:14:14.898Z,99255.13
2022-12-31T23:17:30.950Z,99259.38
2022-12-31T23:20:44.578Z,99255.13
2022-12-31T23:23:31.563Z,99256.84
2022-12-31T23:26:23.392Z,99250.78
2022-12-31T23:29:11.036Z,99256.81
2022-12-31T23:31:57.905Z,99252.53
2022-12-31T23:34:46.375Z,99253.31
2022-12-31T23:37:33.528Z,99254.16
2022-12-31T23:40:34.161Z,99254.97
2022-12-31T23:43:24.678Z,99260.91
2022-12-31T23:46:12.379Z,99258.25
2022-12-31T23:48:59.081Z,99262.56
2022-12-31T23:51:45.900Z,99273.78
2022-12-31T23:54:32.498Z,99276.44
2022-12-31T23:57:24.330Z,99266.09
